Time;durP1;ratioP1;P1;durP2;ratioP2;P2;SDS_P1;SDS_P2;PMS_P1;PMS_P2;Temp;Humidity;BMP_temperature;BMP_pressure;BME280_temperature;BME280_humidity;BME280_pressure;Samples;Min_cycle;Max_cycle;Signal;HPM_P1;HPM_P2
2021/12/03 00:00:27;;;;;;;19.08;12.32;;;;;;;-0.51;100.00;100786.81;4974676;28;20046;-79
2021/12/03 00:02:53;;;;;;;25.88;13.13;;;;;;;-0.54;100.00;100783.34;4945440;29;20031;-79
2021/12/03 00:05:19;;;;;;;20.88;12.40;;;;;;;-0.51;100.00;100785.94;4961362;29;20028;-79
2021/12/03 00:07:45;;;;;;;23.30;12.82;;;;;;;-0.51;100.00;100772.50;4973711;28;20035;-78
2021/12/03 00:10:15;;;;;;;26.80;13.88;;;;;;;-0.48;100.00;100773.28;4975334;28;20035;-79
2021/12/03 00:12:41;;;;;;;22.65;14.73;;;;;;;-0.45;100.00;100781.22;4960865;28;20102;-79
2021/12/03 00:15:09;;;;;;;28.45;14.57;;;;;;;-0.49;100.00;100767.94;4962006;28;20054;-79
2021/12/03 00:17:35;;;;;;;31.10;15.02;;;;;;;-0.41;100.00;100779.31;4962484;28;20038;-79
2021/12/03 00:20:00;;;;;;;30.17;15.13;;;;;;;-0.43;100.00;100779.34;4961491;28;20367;-78
2021/12/03 00:22:26;;;;;;;31.83;15.38;;;;;;;-0.43;100.00;100778.50;4959947;29;20159;-79
2021/12/03 00:24:51;;;;;;;26.50;15.75;;;;;;;-0.41;100.00;100776.63;4960651;29;20027;-78
2021/12/03 00:27:17;;;;;;;29.15;17.25;;;;;;;-0.44;100.00;100783.00;4959790;28;20035;-78
2021/12/03 00:29:42;;;;;;;36.10;17.10;;;;;;;-0.37;100.00;100780.97;4975148;28;20443;-79
2021/12/03 00:32:08;;;;;;;32.63;16.42;;;;;;;-0.37;100.00;100786.34;4961098;28;20047;-79
2021/12/03 00:34:34;;;;;;;34.63;18.80;;;;;;;-0.38;100.00;100782.78;4959600;29;20150;-79
2021/12/03 00:37:00;;;;;;;27.98;17.20;;;;;;;-0.47;100.00;100790.31;4943747;28;20111;-79
2021/12/03 00:39:26;;;;;;;38.28;17.60;;;;;;;-0.41;100.00;100792.75;4959195;29;20031;-79
2021/12/03 00:41:58;;;;;;;32.45;18.40;;;;;;;-0.43;100.00;100795.50;4941333;29;20026;-79
2021/12/03 00:44:25;;;;;;;33.72;18.73;;;;;;;-0.41;100.00;100784.69;4960673;29;20055;-78
2021/12/03 00:46:51;;;;;;;33.92;18.90;;;;;;;-0.37;100.00;100806.06;4918379;28;1182634;-79
2021/12/03 00:49:16;;;;;;;29.45;18.48;;;;;;;-0.43;100.00;100803.56;4959337;28;20092;-79
2021/12/03 00:51:42;;;;;;;42.15;19.88;;;;;;;-0.42;100.00;100801.78;4961177;28;20039;-78
2021/12/03 00:54:07;;;;;;;41.38;21.15;;;;;;;-0.37;100.00;100807.88;4957767;28;20044;-78
2021/12/03 00:56:33;;;;;;;41.15;20.58;;;;;;;-0.37;100.00;100803.34;4971860;28;20035;-79
2021/12/03 00:58:58;;;;;;;41.15;20.55;;;;;;;-0.40;100.00;100802.59;4961093;28;20078;-79
2021/12/03 01:01:24;;;;;;;41.78;21.05;;;;;;;-0.40;100.00;100797.22;4978172;28;20081;-79
2021/12/03 01:03:50;;;;;;;42.85;21.77;;;;;;;-0.33;100.00;100796.06;4950579;28;20035;-79
2021/12/03 01:06:16;;;;;;;46.92;23.33;;;;;;;-0.24;100.00;100797.56;4972470;28;20027;-79
2021/12/03 01:08:42;;;;;;;55.22;24.27;;;;;;;-0.29;100.00;100795.03;4963473;28;20024;-78
2021/12/03 01:11:08;;;;;;;54.13;26.08;;;;;;;-0.24;100.00;100790.38;4971983;28;20062;-78
2021/12/03 01:13:36;;;;;;;54.05;26.45;;;;;;;-0.20;100.00;100793.81;4974737;28;20035;-78
2021/12/03 01:16:02;;;;;;;56.22;24.45;;;;;;;-0.20;100.00;100796.50;4968242;28;20062;-79
2021/12/03 01:18:27;;;;;;;56.75;25.63;;;;;;;-0.22;100.00;100793.88;4954615;29;20082;-79
2021/12/03 01:20:53;;;;;;;54.33;27.27;;;;;;;-0.22;100.00;100801.94;4935715;29;20036;-78
2021/12/03 01:23:18;;;;;;;59.30;26.50;;;;;;;-0.29;100.00;100794.16;4961322;29;20065;-79
2021/12/03 01:25:44;;;;;;;55.55;26.65;;;;;;;-0.21;100.00;100808.22;4975689;28;20035;-79
2021/12/03 01:28:12;;;;;;;63.25;26.80;;;;;;;-0.17;100.00;100803.59;4960289;28;20094;-78
2021/12/03 01:30:38;;;;;;;63.83;27.60;;;;;;;-0.16;100.00;100810.72;4954915;29;20562;-79
2021/12/03 01:33:06;;;;;;;64.20;27.02;;;;;;;-0.18;100.00;100805.44;4952981;29;20039;-79
2021/12/03 01:35:32;;;;;;;60.22;28.42;;;;;;;-0.21;100.00;100809.09;4961231;29;20035;-78
2021/12/03 01:37:58;;;;;;;56.08;25.95;;;;;;;-0.16;100.00;100797.28;4968228;28;20498;-78
2021/12/03 01:40:26;;;;;;;53.65;25.92;;;;;;;-0.07;100.00;100811.28;4953212;28;20487;-79
2021/12/03 01:42:53;;;;;;;58.08;27.33;;;;;;;-0.07;100.00;100810.41;4960558;28;20106;-79
2021/12/03 01:45:24;;;;;;;59.85;26.08;;;;;;;-0.05;100.00;100819.28;4961217;29;20076;-78
2021/12/03 01:47:51;;;;;;;65.65;28.25;;;;;;;-0.05;100.00;100824.69;4973109;28;20365;-79
2021/12/03 01:50:22;;;;;;;58.33;28.00;;;;;;;-0.14;100.00;100812.44;4971615;28;20555;-79
2021/12/03 01:52:47;;;;;;;54.83;28.75;;;;;;;-0.12;100.00;100815.09;4947239;29;20038;-79
2021/12/03 01:55:13;;;;;;;68.25;29.20;;;;;;;-0.10;100.00;100823.97;4943216;29;20118;-79
2021/12/03 01:57:39;;;;;;;63.70;27.33;;;;;;;-0.13;100.00;100811.53;4970080;28;20031;-79
2021/12/03 02:00:10;;;;;;;61.13;29.30;;;;;;;-0.06;100.00;100812.19;4947742;29;20043;-79
2021/12/03 02:02:36;;;;;;;68.55;29.23;;;;;;;-0.09;100.00;100798.81;4948989;29;20035;-80
2021/12/03 02:05:02;;;;;;;63.15;28.17;;;;;;;0.04;100.00;100799.28;4958395;28;20069;-80
2021/12/03 02:07:28;;;;;;;64.88;28.08;;;;;;;0.06;100.00;100803.66;4941119;29;20392;-79
2021/12/03 02:09:53;;;;;;;75.05;31.48;;;;;;;0.10;100.00;100807.09;4969061;28;20031;-80
2021/12/03 02:12:19;;;;;;;72.55;29.38;;;;;;;0.12;100.00;100800.72;4972057;28;20036;-79
2021/12/03 02:14:44;;;;;;;68.20;31.08;;;;;;;0.11;100.00;100790.03;4944438;29;20032;-79
2021/12/03 02:17:10;;;;;;;83.85;32.72;;;;;;;0.20;100.00;100794.19;4956286;29;20067;-79
2021/12/03 02:19:35;;;;;;;69.35;29.95;;;;;;;0.19;100.00;100796.00;4976219;28;20108;-79
2021/12/03 02:22:00;;;;;;;74.93;29.42;;;;;;;0.32;100.00;100796.44;4972720;28;20083;-79
2021/12/03 02:24:26;;;;;;;87.43;34.22;;;;;;;0.25;100.00;100784.13;4971282;28;20125;-79
2021/12/03 02:26:52;;;;;;;86.20;34.70;;;;;;;0.24;100.00;100788.63;4948666;28;20043;-79
2021/12/03 02:29:18;;;;;;;81.75;30.35;;;;;;;0.28;100.00;100797.47;4955223;28;20038;-78
2021/12/03 02:31:44;;;;;;;96.63;35.38;;;;;;;0.33;100.00;100803.56;4960550;28;20043;-79
2021/12/03 02:34:09;;;;;;;82.78;34.67;;;;;;;0.23;100.00;100789.59;4958486;29;20036;-80
2021/12/03 02:36:34;;;;;;;102.43;35.40;;;;;;;0.28;100.00;100810.91;4959029;28;20544;-79
2021/12/03 02:39:00;;;;;;;93.07;34.00;;;;;;;0.29;100.00;100812.69;4971911;28;20031;-79
2021/12/03 02:41:25;;;;;;;91.95;31.25;;;;;;;0.30;100.00;100823.41;4974284;28;20051;-79
2021/12/03 02:43:53;;;;;;;86.47;32.08;;;;;;;0.30;100.00;100822.53;4959782;28;20038;-78
2021/12/03 02:46:18;;;;;;;64.43;29.75;;;;;;;0.31;100.00;100821.59;4945245;28;20058;-79
2021/12/03 02:48:44;;;;;;;76.63;30.98;;;;;;;0.32;100.00;100817.97;4968554;28;20042;-79
2021/12/03 02:51:10;;;;;;;79.90;29.73;;;;;;;0.35;100.00;100816.03;4961382;28;20036;-80
2021/12/03 02:53:37;;;;;;;77.43;29.60;;;;;;;0.42;100.00;100819.38;4960047;29;20039;-79
2021/12/03 02:56:04;;;;;;;76.72;28.67;;;;;;;0.41;100.00;100812.25;4977373;28;20039;-78
2021/12/03 02:58:30;;;;;;;77.15;28.67;;;;;;;0.43;100.00;100802.28;4962702;28;20042;-79
2021/12/03 03:00:56;;;;;;;58.15;26.40;;;;;;;0.45;100.00;100788.75;4961689;28;20035;-79
2021/12/03 03:03:21;;;;;;;76.85;27.23;;;;;;;0.32;100.00;100772.19;4949182;29;20042;-79
2021/12/03 03:05:59;;;;;;;85.70;31.38;;;;;;;0.48;100.00;100791.34;4975500;28;20483;-79
2021/12/03 03:08:26;;;;;;;82.13;29.92;;;;;;;0.48;100.00;100786.81;4973163;28;20447;-79
2021/12/03 03:10:52;;;;;;;69.32;26.63;;;;;;;0.42;100.00;100778.97;4976245;28;20569;-79
2021/12/03 03:13:18;;;;;;;75.15;30.08;;;;;;;0.46;100.00;100785.13;4945206;29;20058;-79
2021/12/03 03:15:44;;;;;;;66.65;27.63;;;;;;;0.46;100.00;100780.63;4976199;28;20623;-80
2021/12/03 03:18:14;;;;;;;80.30;30.50;;;;;;;0.44;100.00;100793.25;4963370;29;20035;-79
2021/12/03 03:20:42;;;;;;;77.88;30.88;;;;;;;0.38;100.00;100781.84;4962611;29;20557;-79
2021/12/03 03:23:09;;;;;;;90.22;29.17;;;;;;;0.38;100.00;100790.81;4946323;29;20422;-79
2021/12/03 03:25:34;;;;;;;87.57;31.65;;;;;;;0.42;100.00;100781.66;4957068;29;20582;-79
2021/12/03 03:28:00;;;;;;;73.47;26.00;;;;;;;0.41;100.00;100771.84;4959753;29;20035;-80
2021/12/03 03:30:26;;;;;;;68.30;29.13;;;;;;;0.35;100.00;100766.69;4976341;28;20435;-79
2021/12/03 03:32:52;;;;;;;75.35;28.95;;;;;;;0.38;100.00;100777.34;4964852;28;20035;-78
2021/12/03 03:35:17;;;;;;;63.60;27.05;;;;;;;0.43;100.00;100796.03;4979619;28;20036;-79
2021/12/03 03:37:43;;;;;;;77.70;29.17;;;;;;;0.48;100.00;100794.91;4962338;29;20034;-79
2021/12/03 03:40:10;;;;;;;77.45;29.80;;;;;;;0.48;100.00;100785.97;4963606;29;20114;-80
2021/12/03 03:42:35;;;;;;;76.80;29.08;;;;;;;0.54;100.00;100783.00;4962709;29;20038;-79
2021/12/03 03:45:04;;;;;;;78.20;28.17;;;;;;;0.57;100.00;100782.88;4978883;28;20047;-79
2021/12/03 03:47:30;;;;;;;75.70;28.48;;;;;;;0.57;100.00;100788.28;4948518;29;20558;-79
2021/12/03 03:49:55;;;;;;;82.93;31.13;;;;;;;0.57;100.00;100784.72;4963884;28;20070;-79
2021/12/03 03:52:21;;;;;;;82.25;32.08;;;;;;;0.64;100.00;100795.19;4964657;28;20043;-80
2021/12/03 03:54:47;;;;;;;93.80;31.83;;;;;;;0.59;100.00;100790.91;4964571;28;20039;-79
2021/12/03 03:57:12;;;;;;;111.20;35.28;;;;;;;0.63;100.00;100801.50;4964205;28;20118;-79
2021/12/03 03:59:38;;;;;;;96.63;32.05;;;;;;;0.66;100.00;100792.44;4959992;29;20031;-79
2021/12/03 04:02:04;;;;;;;87.43;32.60;;;;;;;0.58;100.00;100781.97;4950566;29;20038;-79
2021/12/03 04:04:29;;;;;;;86.93;29.75;;;;;;;0.65;100.00;100778.06;4950422;28;20044;-79
2021/12/03 04:06:55;;;;;;;93.90;29.83;;;;;;;0.63;100.00;100787.19;4977485;28;20070;-79
2021/12/03 04:09:20;;;;;;;87.72;30.25;;;;;;;0.70;100.00;100784.16;4945566;28;20058;-79
2021/12/03 04:11:46;;;;;;;102.95;35.55;;;;;;;0.71;100.00;100791.31;4962877;28;20043;-79
2021/12/03 04:14:12;;;;;;;96.32;33.33;;;;;;;0.63;100.00;100754.84;4962461;29;20035;-79
2021/12/03 04:16:37;;;;;;;111.35;36.17;;;;;;;0.74;100.00;100771.47;4977734;28;20031;-79
2021/12/03 04:19:03;;;;;;;105.30;32.78;;;;;;;0.72;100.00;100774.22;4974397;28;20028;-79
2021/12/03 04:21:28;;;;;;;112.72;36.42;;;;;;;0.72;100.00;100763.44;4976027;28;20085;-79
2021/12/03 04:23:54;;;;;;;99.15;33.03;;;;;;;0.76;100.00;100748.03;4948141;29;20402;-79
2021/12/03 04:26:20;;;;;;;101.10;34.38;;;;;;;0.80;100.00;100757.72;4962251;28;20082;-79
2021/12/03 04:28:46;;;;;;;97.93;33.08;;;;;;;0.82;100.00;100760.34;4957176;29;20036;-79
2021/12/03 04:31:12;;;;;;;106.60;33.72;;;;;;;0.87;100.00;100763.75;4958484;28;20047;-79
2021/12/03 04:33:37;;;;;;;87.40;30.63;;;;;;;0.89;100.00;100753.81;4941603;29;20098;-79
2021/12/03 04:36:04;;;;;;;85.22;33.03;;;;;;;0.95;100.00;100755.34;4958943;29;20035;-79
2021/12/03 04:38:30;;;;;;;78.72;31.45;;;;;;;0.96;100.00;100759.81;4964768;28;20475;-79
2021/12/03 04:40:55;;;;;;;104.47;33.20;;;;;;;0.98;100.00;100761.50;4961894;28;20038;-79
2021/12/03 04:43:21;;;;;;;95.78;31.60;;;;;;;1.03;100.00;100764.00;4948509;28;20098;-79
2021/12/03 04:45:47;;;;;;;83.00;32.72;;;;;;;1.02;100.00;100755.06;4955187;29;20058;-79
2021/12/03 04:48:12;;;;;;;84.97;33.70;;;;;;;1.05;100.00;100757.63;4961938;29;20039;-79
2021/12/03 04:50:41;;;;;;;96.18;32.53;;;;;;;1.09;100.00;100761.06;4958953;28;20547;-79
2021/12/03 04:53:07;;;;;;;89.88;31.17;;;;;;;1.10;100.00;100760.13;4960036;29;20035;-79
2021/12/03 04:55:33;;;;;;;89.57;30.83;;;;;;;1.08;100.00;100748.50;4957080;29;20043;-79
2021/12/03 04:57:59;;;;;;;82.13;30.50;;;;;;;1.09;100.00;100758.38;4958470;28;20030;-79
2021/12/03 05:00:33;;;;;;;85.60;28.55;;;;;;;1.19;100.00;100775.03;4959776;28;20047;-78
2021/12/03 05:03:00;;;;;;;79.43;31.02;;;;;;;1.16;100.00;100773.34;4945765;28;20046;-79
2021/12/03 05:05:31;;;;;;;96.47;31.60;;;;;;;1.19;100.00;100757.03;4972808;28;20118;-79
2021/12/03 05:08:01;;;;;;;90.68;32.72;;;;;;;1.20;100.00;100756.09;4948614;28;20142;-80
2021/12/03 05:10:30;;;;;;;89.53;32.70;;;;;;;1.25;100.00;100769.41;4949753;28;20518;-79
2021/12/03 05:12:59;;;;;;;83.22;30.60;;;;;;;1.21;100.00;100747.06;4956121;29;20063;-80
2021/12/03 05:15:26;;;;;;;93.07;33.55;;;;;;;1.23;100.00;100747.00;4959543;28;20035;-79
2021/12/03 05:17:51;;;;;;;95.25;31.88;;;;;;;1.29;100.00;100749.44;4954239;29;20050;-78
2021/12/03 05:20:17;;;;;;;91.65;33.47;;;;;;;1.25;100.00;100729.81;4955997;29;20031;-78
2021/12/03 05:22:42;;;;;;;87.93;34.25;;;;;;;1.32;100.00;100732.25;4970541;29;20035;-78
2021/12/03 05:25:09;;;;;;;83.70;32.05;;;;;;;1.37;100.00;100738.31;4982885;28;20031;-78
2021/12/03 05:27:35;;;;;;;90.53;32.55;;;;;;;1.35;100.00;100729.44;4979784;28;20047;-78
2021/12/03 05:30:00;;;;;;;68.32;28.08;;;;;;;1.32;100.00;100719.63;4944147;29;20039;-78
2021/12/03 05:32:25;;;;;;;76.03;29.27;;;;;;;1.33;100.00;100732.19;4973379;28;20039;-78
2021/12/03 05:34:51;;;;;;;83.25;31.38;;;;;;;1.34;100.00;100733.06;4961837;28;20143;-79
2021/12/03 05:37:16;;;;;;;95.40;30.60;;;;;;;1.33;100.00;100734.00;4957716;28;20031;-78
2021/12/03 05:39:42;;;;;;;75.47;29.08;;;;;;;1.31;100.00;100734.06;4946310;29;20039;-79
2021/12/03 05:42:08;;;;;;;78.68;28.45;;;;;;;1.29;100.00;100731.41;4953748;28;20449;-79
2021/12/03 05:44:35;;;;;;;75.13;27.27;;;;;;;1.29;100.00;100753.00;4952709;28;20036;-78
2021/12/03 05:47:01;;;;;;;64.80;26.70;;;;;;;1.29;100.00;100742.22;4972370;28;20043;-78
2021/12/03 05:49:27;;;;;;;67.63;26.15;;;;;;;1.27;100.00;100752.19;4972724;28;20094;-78
2021/12/03 05:51:54;;;;;;;57.58;24.13;;;;;;;1.24;100.00;100752.31;4970472;28;20034;-78
2021/12/03 05:54:20;;;;;;;55.50;19.90;;;;;;;1.24;100.00;100746.94;4956774;28;20043;-79
2021/12/03 05:56:46;;;;;;;57.72;23.38;;;;;;;1.23;100.00;100744.28;4939170;29;20024;-79
2021/12/03 05:59:12;;;;;;;54.13;21.88;;;;;;;1.21;100.00;100743.50;4973038;28;20031;-78
2021/12/03 06:01:37;;;;;;;55.40;22.30;;;;;;;1.24;100.00;100738.84;4956305;29;20031;-78
2021/12/03 06:04:03;;;;;;;74.57;23.05;;;;;;;1.21;100.00;100741.66;4946169;29;20063;-78
2021/12/03 06:06:28;;;;;;;67.53;22.90;;;;;;;1.24;100.00;100744.22;4954017;28;20089;-78
2021/12/03 06:08:54;;;;;;;43.80;21.63;;;;;;;1.19;100.00;100748.94;4943846;28;20110;-78
2021/12/03 06:11:19;;;;;;;64.18;22.45;;;;;;;1.22;100.00;100750.66;4960454;28;20032;-77
2021/12/03 06:13:44;;;;;;;54.42;20.92;;;;;;;1.22;100.00;100747.94;4954324;28;20046;-77
2021/12/03 06:16:12;;;;;;;47.15;20.05;;;;;;;1.26;100.00;100744.16;4966131;28;20121;-77
2021/12/03 06:18:38;;;;;;;56.47;19.90;;;;;;;1.26;100.00;100745.06;4948609;29;20031;-78
2021/12/03 06:21:06;;;;;;;50.15;18.52;;;;;;;1.24;100.00;100746.06;4939655;29;20376;-78
2021/12/03 06:23:32;;;;;;;53.63;19.13;;;;;;;1.27;100.00;100740.53;4954236;29;20033;-78
2021/12/03 06:26:00;;;;;;;48.38;18.20;;;;;;;1.21;100.00;100736.25;4950896;28;20047;-78
2021/12/03 06:28:27;;;;;;;45.10;18.00;;;;;;;1.20;100.00;100733.66;4967169;28;20047;-78
2021/12/03 06:30:53;;;;;;;36.20;13.93;;;;;;;1.23;100.00;100737.09;4956870;29;20361;-78
2021/12/03 06:33:19;;;;;;;46.50;16.63;;;;;;;1.19;100.00;100727.38;4958086;28;20094;-78
2021/12/03 06:35:46;;;;;;;51.10;17.23;;;;;;;1.25;100.00;100732.50;4939764;28;20062;-79
2021/12/03 06:38:12;;;;;;;38.35;14.98;;;;;;;1.22;100.00;100743.41;4944939;29;20062;-78
2021/12/03 06:40:37;;;;;;;41.20;14.80;;;;;;;1.21;100.00;100747.06;4963127;28;20426;-78
2021/12/03 06:43:03;;;;;;;49.85;14.48;;;;;;;1.21;100.00;100736.25;4955337;28;20041;-78
2021/12/03 06:45:29;;;;;;;39.65;15.18;;;;;;;1.20;100.00;100725.56;4968223;28;20051;-79
2021/12/03 06:47:54;;;;;;;34.65;13.23;;;;;;;1.19;100.00;100727.38;4955510;29;20125;-79
2021/12/03 06:50:21;;;;;;;39.80;12.63;;;;;;;1.18;100.00;100732.81;4955782;28;20062;-78
2021/12/03 06:52:55;;;;;;;36.08;13.52;;;;;;;1.19;100.00;100726.50;4972661;28;20031;-79
2021/12/03 06:55:21;;;;;;;41.47;13.85;;;;;;;1.15;100.00;100722.16;4972453;28;20027;-79
2021/12/03 06:57:47;;;;;;;27.63;11.00;;;;;;;1.19;100.00;100729.19;4959303;29;20031;-78
2021/12/03 07:00:15;;;;;;;36.63;11.63;;;;;;;1.17;100.00;100729.25;4948110;28;20041;-79
2021/12/03 07:02:40;;;;;;;40.80;13.18;;;;;;;1.16;100.00;100724.81;4944104;28;20486;-79
2021/12/03 07:05:08;;;;;;;34.60;11.98;;;;;;;1.16;100.00;100722.09;4974663;28;20023;-78
2021/12/03 07:07:34;;;;;;;30.08;10.20;;;;;;;1.19;100.00;100719.28;4941096;29;20036;-78
2021/12/03 07:10:00;;;;;;;29.58;11.98;;;;;;;1.22;100.00;100723.69;4951645;28;20188;-78
2021/12/03 07:12:27;;;;;;;32.88;12.45;;;;;;;1.18;100.00;100731.03;4971401;28;20051;-78
2021/12/03 07:14:52;;;;;;;41.22;12.15;;;;;;;1.19;100.00;100732.75;4949860;28;20075;-78
2021/12/03 07:17:18;;;;;;;35.63;11.07;;;;;;;1.19;100.00;100723.81;4972088;28;20668;-79
2021/12/03 07:19:44;;;;;;;31.73;10.52;;;;;;;1.19;100.00;100726.50;4943999;28;20047;-79
2021/12/03 07:22:09;;;;;;;32.30;10.95;;;;;;;1.14;100.00;100724.00;4959536;29;20032;-79
2021/12/03 07:24:35;;;;;;;32.85;10.02;;;;;;;1.22;100.00;100724.53;4954892;28;20058;-78
2021/12/03 07:27:01;;;;;;;41.88;11.13;;;;;;;1.24;100.00;100716.41;4941876;29;20415;-78
2021/12/03 07:29:26;;;;;;;38.42;10.80;;;;;;;1.18;100.00;100706.75;4969199;28;20059;-78
2021/12/03 07:31:52;;;;;;;35.38;10.52;;;;;;;1.14;100.00;100718.59;4950853;28;20420;-77
2021/12/03 07:34:18;;;;;;;38.33;10.38;;;;;;;1.14;100.00;100709.66;4956081;29;20421;-78
2021/12/03 07:36:43;;;;;;;36.95;10.32;;;;;;;1.19;100.00;100713.03;4972114;28;20131;-78
2021/12/03 07:39:09;;;;;;;27.05;9.02;;;;;;;1.15;100.00;100697.91;4968574;28;20050;-78
2021/12/03 07:41:36;;;;;;;35.38;9.43;;;;;;;1.17;100.00;100702.31;4969397;28;20035;-78
2021/12/03 07:44:03;;;;;;;31.52;8.23;;;;;;;1.21;100.00;100711.13;4955557;28;20372;-79
2021/12/03 07:46:28;;;;;;;27.60;7.88;;;;;;;1.20;100.00;100701.31;4958093;28;20027;-79
2021/12/03 07:48:53;;;;;;;21.92;7.32;;;;;;;1.27;100.00;100709.03;4958616;29;20049;-79
2021/12/03 07:51:19;;;;;;;33.50;8.90;;;;;;;1.21;100.00;100724.63;4956243;29;20365;-79
2021/12/03 07:53:44;;;;;;;36.60;9.05;;;;;;;1.19;100.00;100729.19;4965713;28;20030;-78
2021/12/03 07:56:10;;;;;;;35.95;7.13;;;;;;;1.14;100.00;100724.00;4952637;28;20042;-77
2021/12/03 07:58:37;;;;;;;34.00;7.88;;;;;;;1.23;100.00;100728.13;4973106;28;20127;-78
2021/12/03 08:01:03;;;;;;;29.52;7.45;;;;;;;1.41;100.00;100735.44;4955352;28;20031;-77
2021/12/03 08:03:29;;;;;;;27.92;7.95;;;;;;;1.27;100.00;100729.75;4955836;28;20031;-77
2021/12/03 08:05:54;;;;;;;38.55;8.18;;;;;;;1.37;100.00;100727.53;4959401;28;20078;-79
2021/12/03 08:08:25;;;;;;;21.15;7.05;;;;;;;1.33;100.00;100736.69;4961093;28;20427;-78
2021/12/03 08:10:51;;;;;;;36.22;8.52;;;;;;;1.33;100.00;100728.59;4963615;28;20082;-78
2021/12/03 08:13:16;;;;;;;27.48;7.00;;;;;;;1.28;100.00;100724.28;4962480;28;20043;-78
2021/12/03 08:15:42;;;;;;;25.55;7.50;;;;;;;1.35;100.00;100721.34;4963722;29;20023;-78
2021/12/03 08:18:08;;;;;;;25.35;7.03;;;;;;;1.50;100.00;100711.69;4962494;28;20035;-79
2021/12/03 08:20:34;;;;;;;29.30;7.45;;;;;;;1.56;100.00;100719.50;4972632;28;20067;-78
2021/12/03 08:23:00;;;;;;;24.50;8.52;;;;;;;1.39;100.00;100713.03;4959067;28;20066;-79
2021/12/03 08:25:26;;;;;;;21.55;7.03;;;;;;;1.42;100.00;100714.72;4977087;28;20040;-78
2021/12/03 08:27:53;;;;;;;33.13;8.20;;;;;;;1.41;100.00;100696.78;4960643;29;20491;-78
2021/12/03 08:30:18;;;;;;;23.85;7.75;;;;;;;1.44;100.00;100700.25;4984513;28;20039;-78
2021/12/03 08:32:44;;;;;;;26.77;7.80;;;;;;;1.45;100.00;100696.59;4946451;29;20028;-78
2021/12/03 08:35:10;;;;;;;32.20;7.53;;;;;;;1.47;100.00;100697.38;4945362;29;20031;-78
2021/12/03 08:37:38;;;;;;;28.48;7.90;;;;;;;1.50;100.00;100690.13;4943709;29;20047;-78
2021/12/03 08:40:05;;;;;;;29.70;7.05;;;;;;;1.52;100.00;100697.19;4962844;29;20042;-78
2021/12/03 08:42:30;;;;;;;35.70;7.80;;;;;;;1.50;100.00;100693.69;4976498;28;20028;-79
2021/12/03 08:44:58;;;;;;;25.92;6.25;;;;;;;1.60;100.00;100703.13;4946536;29;20040;-78
2021/12/03 08:47:24;;;;;;;26.05;6.63;;;;;;;1.61;100.00;100698.63;4976304;28;20063;-78
2021/12/03 08:49:52;;;;;;;35.42;7.07;;;;;;;1.68;100.00;100701.91;4959053;28;20454;-78
2021/12/03 08:54:52;;;;;;;26.88;5.75;;;;;;;1.71;100.00;100702.66;4962441;29;20027;-78
2021/12/03 08:57:29;;;;;;;40.25;7.30;;;;;;;1.76;100.00;100700.63;4963105;29;20058;-79
2021/12/03 08:59:58;;;;;;;22.42;5.32;;;;;;;1.75;100.00;100696.16;4963445;29;20031;-78
2021/12/03 09:02:24;;;;;;;30.40;6.70;;;;;;;1.77;100.00;100696.97;4947510;29;20035;-78
2021/12/03 09:04:50;;;;;;;25.58;4.45;;;;;;;1.79;100.00;100695.09;4962627;28;20054;-79
2021/12/03 09:07:16;;;;;;;29.40;6.13;;;;;;;1.85;100.00;100696.63;4961631;28;20031;-79
2021/12/03 09:09:43;;;;;;;20.15;4.85;;;;;;;1.89;100.00;100705.47;4969364;28;20031;-79
2021/12/03 09:12:08;;;;;;;21.73;5.90;;;;;;;1.89;100.00;100694.69;4999084;28;20031;-78
2021/12/03 09:14:45;;;;;;;21.85;5.10;;;;;;;1.90;100.00;100681.06;4969214;28;20067;-79
2021/12/03 09:22:26;;;;;;;21.03;5.33;;;;;;;1.98;100.00;100678.03;4964004;29;20035;-78
2021/12/03 09:24:53;;;;;;;26.73;5.28;;;;;;;1.95;100.00;100681.78;4961766;28;20053;-79
2021/12/03 09:27:20;;;;;;;21.95;5.35;;;;;;;2.05;100.00;100686.72;4947769;29;20050;-79
2021/12/03 09:29:46;;;;;;;18.90;4.45;;;;;;;2.05;100.00;100684.03;4947978;29;20046;-78
2021/12/03 09:32:20;;;;;;;22.90;5.22;;;;;;;2.08;100.00;100673.09;4964389;28;20059;-79
2021/12/03 09:34:46;;;;;;;21.65;4.28;;;;;;;2.18;100.00;100687.91;4950695;28;20054;-79
2021/12/03 09:37:11;;;;;;;13.82;4.32;;;;;;;2.24;100.00;100686.75;4962388;29;20039;-78
2021/12/03 09:39:40;;;;;;;21.10;4.45;;;;;;;2.23;100.00;100691.28;4960626;28;20118;-78
2021/12/03 09:42:06;;;;;;;29.25;4.50;;;;;;;2.29;100.00;100693.66;4960225;28;20020;-78
2021/12/03 09:44:32;;;;;;;20.92;5.47;;;;;;;2.27;100.00;100684.78;4959700;29;20448;-78
2021/12/03 09:46:59;;;;;;;24.40;4.78;;;;;;;2.34;100.00;100688.06;4979475;28;20092;-78
2021/12/03 09:52:04;;;;;;;18.10;4.88;;;;;;;2.34;100.00;100682.66;4964329;28;20039;-78
2021/12/03 09:54:40;;;;;;;14.40;4.22;;;;;;;2.34;100.00;100686.22;4946338;29;20023;-79
2021/12/03 09:57:12;;;;;;;25.83;5.63;;;;;;;2.36;100.00;100683.44;4958120;28;20055;-79
2021/12/03 10:13:12;;;;;;;28.13;4.00;;;;;;;2.45;100.00;100639.78;4966221;28;20036;-78
2021/12/03 10:15:52;;;;;;;18.45;4.18;;;;;;;2.49;100.00;100636.00;4963191;29;20059;-79
2021/12/03 10:18:32;;;;;;;12.40;3.17;;;;;;;2.48;100.00;100627.97;4962652;29;20039;-78
2021/12/03 10:21:13;;;;;;;21.23;3.95;;;;;;;2.51;100.00;100633.19;4975833;28;20032;-78
2021/12/03 10:24:18;;;;;;;19.45;4.05;;;;;;;2.57;100.00;100631.09;4962384;29;20042;-81
2021/12/03 10:34:49;;;;;;;17.77;4.38;;;;;;;2.67;100.00;100607.19;4970467;29;20094;-78
2021/12/03 10:37:29;;;;;;;20.48;4.45;;;;;;;2.70;100.00;100600.72;4951321;29;20066;-79
2021/12/03 10:40:06;;;;;;;18.58;4.07;;;;;;;2.69;100.00;100589.06;4980268;28;20043;-80
2021/12/03 10:42:48;;;;;;;19.13;5.00;;;;;;;2.91;100.00;100586.09;4968218;29;20031;-78
2021/12/03 11:31:46;;;;;;;17.83;4.80;;;;;;;3.47;100.00;100492.03;4976335;28;20042;-79
2021/12/03 12:35:44;;;;;;;15.77;3.75;;;;;;;4.19;100.00;100357.00;4956831;28;20039;-77
2021/12/03 14:00:55;;;;;;;14.32;3.92;;;;;;;4.07;100.00;100251.22;4963382;28;20099;-79
2021/12/03 14:49:52;;;;;;;8.20;3.22;;;;;;;3.73;100.00;100234.34;4961209;29;20058;-78
2021/12/03 14:52:24;;;;;;;9.88;2.70;;;;;;;3.77;100.00;100238.59;4960885;29;20530;-78
2021/12/03 14:57:51;;;;;;;13.38;4.25;;;;;;;3.70;100.00;100243.53;4942471;29;20036;-78
2021/12/03 15:00:29;;;;;;;10.40;3.35;;;;;;;3.75;100.00;100252.22;4925170;29;20048;-78
2021/12/03 15:03:08;;;;;;;6.13;2.97;;;;;;;3.74;100.00;100250.50;4966860;28;20027;-79
2021/12/03 15:06:00;;;;;;;4.50;2.70;;;;;;;3.72;100.00;100249.72;4978601;28;20063;-78
2021/12/03 15:08:35;;;;;;;5.85;2.22;;;;;;;3.63;100.00;100244.88;4959881;28;20073;-78
2021/12/03 15:19:24;;;;;;;6.97;3.00;;;;;;;3.58;100.00;100239.72;4967153;29;20039;-78
2021/12/03 15:31:55;;;;;;;5.00;3.08;;;;;;;3.58;100.00;100228.91;4961426;28;20039;-79
2021/12/03 15:39:41;;;;;;;6.38;3.10;;;;;;;3.64;100.00;100211.41;4962079;28;20026;-78
2021/12/03 16:03:29;;;;;;;8.23;1.83;;;;;;;3.60;100.00;100209.88;4959083;29;20118;-78
2021/12/03 16:04:16;;;;;;;5.80;2.90;;;;;;;3.58;100.00;100209.94;4948654;29;20336;-78
2021/12/03 16:07:52;;;;;;;6.68;2.88;;;;;;;3.58;100.00;100206.38;4972414;28;20036;-78
2021/12/03 16:12:22;;;;;;;5.65;3.20;;;;;;;3.52;100.00;100201.34;4957537;29;20471;-78
2021/12/03 16:17:33;;;;;;;4.85;2.67;;;;;;;3.50;100.00;100196.00;4949001;29;20094;-77
2021/12/03 16:20:27;;;;;;;13.45;4.25;;;;;;;3.53;100.00;100197.69;4946812;29;20554;-77
2021/12/03 16:44:31;;;;;;;7.28;4.50;;;;;;;3.35;100.00;100153.66;4953872;29;20102;-80
2021/12/03 16:47:00;;;;;;;34.22;9.73;;;;;;;3.37;100.00;100143.59;4944793;29;20410;-79
2021/12/03 16:49:52;;;;;;;10.63;5.05;;;;;;;3.36;100.00;100149.97;4957646;28;20502;-80
2021/12/03 16:52:16;;;;;;;5.57;4.65;;;;;;;3.34;100.00;100152.75;4944481;29;20036;-79